sensor_id;sensor_type;location;lat;lon;timestamp;temperature;humidity
63094;DHT22;49183;51.380;0.098;2023-07-24T00:00:42;12.30;93.60
63094;DHT22;49183;51.380;0.098;2023-07-24T00:03:09;12.40;93.60
63094;DHT22;49183;51.380;0.098;2023-07-24T00:05:37;12.30;93.60
63094;DHT22;49183;51.380;0.098;2023-07-24T00:08:05;12.40;93.60
63094;DHT22;49183;51.380;0.098;2023-07-24T00:10:33;12.40;93.60
63094;DHT22;49183;51.380;0.098;2023-07-24T00:13:01;12.30;93.50
63094;DHT22;49183;51.380;0.098;2023-07-24T00:15:30;12.30;93.60
63094;DHT22;49183;51.380;0.098;2023-07-24T00:17:58;12.30;93.60
63094;DHT22;49183;51.380;0.098;2023-07-24T00:20:25;12.30;93.60
63094;DHT22;49183;51.380;0.098;2023-07-24T00:22:53;12.30;93.60
63094;DHT22;49183;51.380;0.098;2023-07-24T00:25:21;12.30;93.60
63094;DHT22;49183;51.380;0.098;2023-07-24T00:27:49;12.30;93.60
63094;DHT22;49183;51.380;0.098;2023-07-24T00:30:16;12.30;93.60
63094;DHT22;49183;51.380;0.098;2023-07-24T00:32:44;12.30;93.60
63094;DHT22;49183;51.380;0.098;2023-07-24T00:35:12;12.20;93.60
63094;DHT22;49183;51.380;0.098;2023-07-24T00:37:39;12.20;93.60
63094;DHT22;49183;51.380;0.098;2023-07-24T00:40:07;12.20;93.70
63094;DHT22;49183;51.380;0.098;2023-07-24T00:42:35;12.20;93.70
63094;DHT22;49183;51.380;0.098;2023-07-24T00:45:02;12.20;93.70
63094;DHT22;49183;51.380;0.098;2023-07-24T00:47:32;12.10;93.60
63094;DHT22;49183;51.380;0.098;2023-07-24T00:49:59;12.20;93.70
63094;DHT22;49183;51.380;0.098;2023-07-24T00:52:27;12.20;93.60
63094;DHT22;49183;51.380;0.098;2023-07-24T00:54:54;12.10;93.70
63094;DHT22;49183;51.380;0.098;2023-07-24T00:57:22;12.10;93.60
63094;DHT22;49183;51.380;0.098;2023-07-24T00:59:50;12.10;93.60
63094;DHT22;49183;51.380;0.098;2023-07-24T01:02:18;12.00;93.60
63094;DHT22;49183;51.380;0.098;2023-07-24T01:04:45;12.10;93.60
63094;DHT22;49183;51.380;0.098;2023-07-24T01:07:13;12.00;93.60
63094;DHT22;49183;51.380;0.098;2023-07-24T01:09:43;12.00;93.70
63094;DHT22;49183;51.380;0.098;2023-07-24T01:12:13;12.00;93.70
63094;DHT22;49183;51.380;0.098;2023-07-24T01:14:47;11.90;93.70
63094;DHT22;49183;51.380;0.098;2023-07-24T01:17:16;11.90;93.70
63094;DHT22;49183;51.380;0.098;2023-07-24T01:19:49;11.90;93.70
63094;DHT22;49183;51.380;0.098;2023-07-24T01:22:24;11.80;93.80
63094;DHT22;49183;51.380;0.098;2023-07-24T01:27:40;11.80;93.70
63094;DHT22;49183;51.380;0.098;2023-07-24T01:30:08;11.80;93.80
63094;DHT22;49183;51.380;0.098;2023-07-24T01:32:36;11.70;93.80
63094;DHT22;49183;51.380;0.098;2023-07-24T01:35:04;11.70;93.80
63094;DHT22;49183;51.380;0.098;2023-07-24T01:37:33;11.70;93.80
63094;DHT22;49183;51.380;0.098;2023-07-24T01:40:02;11.70;93.80
63094;DHT22;49183;51.380;0.098;2023-07-24T01:45:19;11.60;93.80
63094;DHT22;49183;51.380;0.098;2023-07-24T01:47:46;11.60;93.80
63094;DHT22;49183;51.380;0.098;2023-07-24T01:50:17;11.60;93.80
63094;DHT22;49183;51.380;0.098;2023-07-24T01:52:45;11.50;93.80
63094;DHT22;49183;51.380;0.098;2023-07-24T01:55:13;11.50;93.80
63094;DHT22;49183;51.380;0.098;2023-07-24T01:57:40;11.50;93.80
63094;DHT22;49183;51.380;0.098;2023-07-24T02:03:15;11.40;93.90
63094;DHT22;49183;51.380;0.098;2023-07-24T02:05:48;11.40;93.90
63094;DHT22;49183;51.380;0.098;2023-07-24T02:08:16;11.40;93.90
63094;DHT22;49183;51.380;0.098;2023-07-24T02:10:43;11.40;93.90
63094;DHT22;49183;51.380;0.098;2023-07-24T02:19:24;11.40;94.00
63094;DHT22;49183;51.380;0.098;2023-07-24T02:21:51;11.40;94.00
63094;DHT22;49183;51.380;0.098;2023-07-24T02:24:19;11.40;94.00
63094;DHT22;49183;51.380;0.098;2023-07-24T02:26:53;11.40;94.00
63094;DHT22;49183;51.380;0.098;2023-07-24T02:36:05;11.30;94.10
63094;DHT22;49183;51.380;0.098;2023-07-24T02:38:34;11.30;94.20
63094;DHT22;49183;51.380;0.098;2023-07-24T02:44:18;11.30;94.20
63094;DHT22;49183;51.380;0.098;2023-07-24T02:46:46;11.30;94.20
63094;DHT22;49183;51.380;0.098;2023-07-24T02:52:40;11.20;94.20
63094;DHT22;49183;51.380;0.098;2023-07-24T02:58:04;11.30;94.30
63094;DHT22;49183;51.380;0.098;2023-07-24T03:00:31;11.30;94.30
63094;DHT22;49183;51.380;0.098;2023-07-24T03:05:59;11.30;94.30
63094;DHT22;49183;51.380;0.098;2023-07-24T03:08:27;11.30;94.30
63094;DHT22;49183;51.380;0.098;2023-07-24T03:10:54;11.30;94.20
63094;DHT22;49183;51.380;0.098;2023-07-24T03:13:22;11.30;94.20
63094;DHT22;49183;51.380;0.098;2023-07-24T03:15:56;11.30;94.20
63094;DHT22;49183;51.380;0.098;2023-07-24T03:18:24;11.30;94.20
63094;DHT22;49183;51.380;0.098;2023-07-24T03:20:52;11.30;94.20
63094;DHT22;49183;51.380;0.098;2023-07-24T03:23:19;11.30;94.20
63094;DHT22;49183;51.380;0.098;2023-07-24T03:25:47;11.30;94.20
63094;DHT22;49183;51.380;0.098;2023-07-24T03:28:16;11.30;94.20
63094;DHT22;49183;51.380;0.098;2023-07-24T03:30:44;11.30;94.20
63094;DHT22;49183;51.380;0.098;2023-07-24T03:33:12;11.40;94.20
63094;DHT22;49183;51.380;0.098;2023-07-24T03:35:40;11.30;94.20
63094;DHT22;49183;51.380;0.098;2023-07-24T03:38:08;11.30;94.20
63094;DHT22;49183;51.380;0.098;2023-07-24T03:40:35;11.40;94.10
63094;DHT22;49183;51.380;0.098;2023-07-24T03:43:04;11.40;94.10
63094;DHT22;49183;51.380;0.098;2023-07-24T03:45:32;11.40;94.10
63094;DHT22;49183;51.380;0.098;2023-07-24T03:47:59;11.30;94.10
63094;DHT22;49183;51.380;0.098;2023-07-24T03:50:28;11.30;94.10
63094;DHT22;49183;51.380;0.098;2023-07-24T03:52:56;11.30;94.10
63094;DHT22;49183;51.380;0.098;2023-07-24T03:55:23;11.30;94.10
63094;DHT22;49183;51.380;0.098;2023-07-24T03:57:51;11.30;94.10
63094;DHT22;49183;51.380;0.098;2023-07-24T04:00:18;11.30;94.10
63094;DHT22;49183;51.380;0.098;2023-07-24T04:02:46;11.30;94.10
63094;DHT22;49183;51.380;0.098;2023-07-24T04:05:15;11.30;94.10
63094;DHT22;49183;51.380;0.098;2023-07-24T04:07:43;11.30;94.00
63094;DHT22;49183;51.380;0.098;2023-07-24T04:10:10;11.20;94.00
63094;DHT22;49183;51.380;0.098;2023-07-24T04:12:38;11.30;94.10
63094;DHT22;49183;51.380;0.098;2023-07-24T04:15:06;11.20;94.10
63094;DHT22;49183;51.380;0.098;2023-07-24T04:17:33;11.20;94.10
63094;DHT22;49183;51.380;0.098;2023-07-24T04:20:03;11.20;94.10
63094;DHT22;49183;51.380;0.098;2023-07-24T04:22:31;11.20;94.10
63094;DHT22;49183;51.380;0.098;2023-07-24T04:24:58;11.20;94.10
63094;DHT22;49183;51.380;0.098;2023-07-24T04:27:26;11.20;94.00
63094;DHT22;49183;51.380;0.098;2023-07-24T04:29:53;11.20;94.10
63094;DHT22;49183;51.380;0.098;2023-07-24T04:32:20;11.30;94.10
63094;DHT22;49183;51.380;0.098;2023-07-24T04:34:48;11.20;94.00
63094;DHT22;49183;51.380;0.098;2023-07-24T04:37:16;11.30;94.00
63094;DHT22;49183;51.380;0.098;2023-07-24T04:39:47;11.30;94.00
63094;DHT22;49183;51.380;0.098;2023-07-24T04:42:14;11.30;94.00
63094;DHT22;49183;51.380;0.098;2023-07-24T04:44:42;11.30;94.00
63094;DHT22;49183;51.380;0.098;2023-07-24T04:47:09;11.30;94.00
63094;DHT22;49183;51.380;0.098;2023-07-24T04:49:37;11.20;94.00
63094;DHT22;49183;51.380;0.098;2023-07-24T04:52:04;11.30;94.00
63094;DHT22;49183;51.380;0.098;2023-07-24T04:54:32;11.30;94.00
63094;DHT22;49183;51.380;0.098;2023-07-24T04:57:00;11.30;94.00
63094;DHT22;49183;51.380;0.098;2023-07-24T04:59:27;11.30;94.00
63094;DHT22;49183;51.380;0.098;2023-07-24T05:01:55;11.30;94.00
63094;DHT22;49183;51.380;0.098;2023-07-24T05:04:23;11.30;94.00
63094;DHT22;49183;51.380;0.098;2023-07-24T05:06:51;11.30;94.00
63094;DHT22;49183;51.380;0.098;2023-07-24T05:09:18;11.30;94.00
63094;DHT22;49183;51.380;0.098;2023-07-24T05:11:46;11.30;94.10
63094;DHT22;49183;51.380;0.098;2023-07-24T05:14:13;11.30;94.00
63094;DHT22;49183;51.380;0.098;2023-07-24T05:16:41;11.30;94.00
63094;DHT22;49183;51.380;0.098;2023-07-24T05:22:08;11.40;94.10
63094;DHT22;49183;51.380;0.098;2023-07-24T05:24:37;11.40;94.10
63094;DHT22;49183;51.380;0.098;2023-07-24T05:27:05;11.40;94.10
63094;DHT22;49183;51.380;0.098;2023-07-24T05:29:33;11.40;94.10
63094;DHT22;49183;51.380;0.098;2023-07-24T05:32:00;11.40;94.10
63094;DHT22;49183;51.380;0.098;2023-07-24T05:34:28;11.40;94.10
63094;DHT22;49183;51.380;0.098;2023-07-24T05:36:56;11.50;94.10
63094;DHT22;49183;51.380;0.098;2023-07-24T05:39:23;11.50;94.20
63094;DHT22;49183;51.380;0.098;2023-07-24T05:41:51;11.50;94.20
63094;DHT22;49183;51.380;0.098;2023-07-24T05:44:18;11.50;94.20
63094;DHT22;49183;51.380;0.098;2023-07-24T05:46:46;11.60;94.20
63094;DHT22;49183;51.380;0.098;2023-07-24T05:49:13;11.60;94.20
63094;DHT22;49183;51.380;0.098;2023-07-24T05:51:41;11.60;94.20
63094;DHT22;49183;51.380;0.098;2023-07-24T05:54:08;11.70;94.20
63094;DHT22;49183;51.380;0.098;2023-07-24T05:56:36;11.70;94.20
63094;DHT22;49183;51.380;0.098;2023-07-24T05:59:07;11.70;94.20
63094;DHT22;49183;51.380;0.098;2023-07-24T06:01:34;11.70;94.20
63094;DHT22;49183;51.380;0.098;2023-07-24T06:04:02;11.80;94.20
63094;DHT22;49183;51.380;0.098;2023-07-24T06:06:29;11.80;94.20
63094;DHT22;49183;51.380;0.098;2023-07-24T06:08:57;11.80;94.20
63094;DHT22;49183;51.380;0.098;2023-07-24T06:11:25;11.80;94.20
63094;DHT22;49183;51.380;0.098;2023-07-24T06:13:54;11.80;94.20
63094;DHT22;49183;51.380;0.098;2023-07-24T06:16:21;11.90;94.20
63094;DHT22;49183;51.380;0.098;2023-07-24T06:18:49;11.90;94.20
63094;DHT22;49183;51.380;0.098;2023-07-24T06:21:16;11.90;94.20
63094;DHT22;49183;51.380;0.098;2023-07-24T06:23:44;11.90;94.20
63094;DHT22;49183;51.380;0.098;2023-07-24T06:26:11;11.90;94.20
63094;DHT22;49183;51.380;0.098;2023-07-24T06:28:39;11.90;94.20
63094;DHT22;49183;51.380;0.098;2023-07-24T06:31:06;11.90;94.30
63094;DHT22;49183;51.380;0.098;2023-07-24T06:33:34;12.00;94.30
63094;DHT22;49183;51.380;0.098;2023-07-24T06:36:03;12.00;94.20
63094;DHT22;49183;51.380;0.098;2023-07-24T06:38:31;12.00;94.20
63094;DHT22;49183;51.380;0.098;2023-07-24T06:40:58;12.00;94.20
63094;DHT22;49183;51.380;0.098;2023-07-24T06:43:26;12.10;94.20
63094;DHT22;49183;51.380;0.098;2023-07-24T06:45:54;12.10;94.20
63094;DHT22;49183;51.380;0.098;2023-07-24T06:48:22;12.10;94.20
63094;DHT22;49183;51.380;0.098;2023-07-24T06:50:50;12.10;94.10
63094;DHT22;49183;51.380;0.098;2023-07-24T06:53:18;12.10;94.10
63094;DHT22;49183;51.380;0.098;2023-07-24T06:55:48;12.10;94.10
63094;DHT22;49183;51.380;0.098;2023-07-24T06:58:16;12.10;94.20
63094;DHT22;49183;51.380;0.098;2023-07-24T07:00:43;12.20;94.10
63094;DHT22;49183;51.380;0.098;2023-07-24T07:03:11;12.10;94.10
63094;DHT22;49183;51.380;0.098;2023-07-24T07:05:38;12.10;94.10
63094;DHT22;49183;51.380;0.098;2023-07-24T07:08:06;12.10;94.10
63094;DHT22;49183;51.380;0.098;2023-07-24T07:10:33;12.10;94.10
63094;DHT22;49183;51.380;0.098;2023-07-24T07:13:01;12.10;94.20
63094;DHT22;49183;51.380;0.098;2023-07-24T07:15:28;12.10;94.10
63094;DHT22;49183;51.380;0.098;2023-07-24T07:17:56;12.10;94.20
63094;DHT22;49183;51.380;0.098;2023-07-24T07:20:24;12.10;94.10
63094;DHT22;49183;51.380;0.098;2023-07-24T07:22:51;12.20;94.10
63094;DHT22;49183;51.380;0.098;2023-07-24T07:25:19;12.20;94.10
63094;DHT22;49183;51.380;0.098;2023-07-24T07:27:46;12.20;94.10
63094;DHT22;49183;51.380;0.098;2023-07-24T07:30:14;12.20;94.10
63094;DHT22;49183;51.380;0.098;2023-07-24T07:32:41;12.10;94.00
63094;DHT22;49183;51.380;0.098;2023-07-24T07:35:17;12.10;94.00
63094;DHT22;49183;51.380;0.098;2023-07-24T07:37:45;12.10;94.00
63094;DHT22;49183;51.380;0.098;2023-07-24T07:40:14;12.10;94.00
63094;DHT22;49183;51.380;0.098;2023-07-24T07:42:41;12.20;94.10
63094;DHT22;49183;51.380;0.098;2023-07-24T07:45:11;12.20;94.10
63094;DHT22;49183;51.380;0.098;2023-07-24T07:50:38;12.30;94.00
63094;DHT22;49183;51.380;0.098;2023-07-24T07:53:07;12.30;94.00
63094;DHT22;49183;51.380;0.098;2023-07-24T08:05:09;12.40;93.70
63094;DHT22;49183;51.380;0.098;2023-07-24T08:07:46;12.40;93.80
63094;DHT22;49183;51.380;0.098;2023-07-24T08:10:14;12.40;93.70
63094;DHT22;49183;51.380;0.098;2023-07-24T08:12:45;12.40;93.80
63094;DHT22;49183;51.380;0.098;2023-07-24T08:15:12;12.40;93.60
63094;DHT22;49183;51.380;0.098;2023-07-24T08:17:40;12.30;93.60
63094;DHT22;49183;51.380;0.098;2023-07-24T08:20:08;12.30;93.60
63094;DHT22;49183;51.380;0.098;2023-07-24T08:22:35;12.40;93.60
63094;DHT22;49183;51.380;0.098;2023-07-24T08:25:03;12.30;93.50
63094;DHT22;49183;51.380;0.098;2023-07-24T08:27:31;12.30;93.50
63094;DHT22;49183;51.380;0.098;2023-07-24T08:30:35;12.40;93.50
63094;DHT22;49183;51.380;0.098;2023-07-24T08:33:12;12.40;93.40
63094;DHT22;49183;51.380;0.098;2023-07-24T08:35:40;12.40;93.40
63094;DHT22;49183;51.380;0.098;2023-07-24T08:38:07;12.40;93.30
63094;DHT22;49183;51.380;0.098;2023-07-24T08:40:35;12.40;93.30
63094;DHT22;49183;51.380;0.098;2023-07-24T08:43:03;12.50;93.30
63094;DHT22;49183;51.380;0.098;2023-07-24T08:45:31;12.60;93.30
63094;DHT22;49183;51.380;0.098;2023-07-24T08:47:58;12.70;93.30
63094;DHT22;49183;51.380;0.098;2023-07-24T08:50:33;12.60;93.20
63094;DHT22;49183;51.380;0.098;2023-07-24T08:53:00;12.70;93.10
63094;DHT22;49183;51.380;0.098;2023-07-24T08:55:29;12.80;93.10
63094;DHT22;49183;51.380;0.098;2023-07-24T08:57:57;12.90;92.90
63094;DHT22;49183;51.380;0.098;2023-07-24T09:00:27;13.00;92.90
63094;DHT22;49183;51.380;0.098;2023-07-24T09:02:55;13.10;92.80
63094;DHT22;49183;51.380;0.098;2023-07-24T09:05:22;13.30;92.60
63094;DHT22;49183;51.380;0.098;2023-07-24T09:07:50;13.40;92.50
63094;DHT22;49183;51.380;0.098;2023-07-24T09:10:23;13.60;92.20
63094;DHT22;49183;51.380;0.098;2023-07-24T09:12:52;13.80;91.70
63094;DHT22;49183;51.380;0.098;2023-07-24T09:15:20;13.90;90.90
63094;DHT22;49183;51.380;0.098;2023-07-24T09:17:51;14.00;90.90
63094;DHT22;49183;51.380;0.098;2023-07-24T09:20:20;14.20;90.80
63094;DHT22;49183;51.380;0.098;2023-07-24T09:22:51;14.40;90.40
63094;DHT22;49183;51.380;0.098;2023-07-24T09:25:30;14.50;90.20
63094;DHT22;49183;51.380;0.098;2023-07-24T09:27:59;14.70;89.70
63094;DHT22;49183;51.380;0.098;2023-07-24T09:30:26;14.90;88.40
63094;DHT22;49183;51.380;0.098;2023-07-24T09:32:54;15.00;87.00
63094;DHT22;49183;51.380;0.098;2023-07-24T09:35:22;15.20;87.50
63094;DHT22;49183;51.380;0.098;2023-07-24T09:38:04;15.30;85.30
63094;DHT22;49183;51.380;0.098;2023-07-24T09:40:42;15.40;85.30
63094;DHT22;49183;51.380;0.098;2023-07-24T09:43:23;15.40;83.90
63094;DHT22;49183;51.380;0.098;2023-07-24T09:46:07;15.50;83.70
63094;DHT22;49183;51.380;0.098;2023-07-24T09:48:36;15.70;84.00
63094;DHT22;49183;51.380;0.098;2023-07-24T09:51:10;15.80;84.00
63094;DHT22;49183;51.380;0.098;2023-07-24T09:53:39;15.80;81.60
63094;DHT22;49183;51.380;0.098;2023-07-24T09:56:10;15.70;82.20
63094;DHT22;49183;51.380;0.098;2023-07-24T09:58:38;15.60;81.80
63094;DHT22;49183;51.380;0.098;2023-07-24T10:01:07;15.70;81.50
63094;DHT22;49183;51.380;0.098;2023-07-24T10:03:39;15.70;80.40
63094;DHT22;49183;51.380;0.098;2023-07-24T10:06:09;15.70;80.50
63094;DHT22;49183;51.380;0.098;2023-07-24T10:08:39;15.60;79.90
63094;DHT22;49183;51.380;0.098;2023-07-24T10:11:11;15.60;80.30
63094;DHT22;49183;51.380;0.098;2023-07-24T10:13:42;15.80;80.70
63094;DHT22;49183;51.380;0.098;2023-07-24T10:16:10;16.10;81.00
63094;DHT22;49183;51.380;0.098;2023-07-24T10:18:42;16.30;81.40
63094;DHT22;49183;51.380;0.098;2023-07-24T10:21:10;16.40;79.90
63094;DHT22;49183;51.380;0.098;2023-07-24T10:23:45;16.50;80.20
63094;DHT22;49183;51.380;0.098;2023-07-24T10:26:16;16.70;78.50
63094;DHT22;49183;51.380;0.098;2023-07-24T10:28:46;16.90;79.50
63094;DHT22;49183;51.380;0.098;2023-07-24T10:31:23;16.90;76.20
63094;DHT22;49183;51.380;0.098;2023-07-24T10:33:51;17.10;77.20
63094;DHT22;49183;51.380;0.098;2023-07-24T10:36:19;17.00;72.30
63094;DHT22;49183;51.380;0.098;2023-07-24T10:38:51;16.80;73.00
63094;DHT22;49183;51.380;0.098;2023-07-24T10:41:19;16.80;73.20
63094;DHT22;49183;51.380;0.098;2023-07-24T10:43:47;16.60;71.80
63094;DHT22;49183;51.380;0.098;2023-07-24T10:46:16;16.60;74.20
63094;DHT22;49183;51.380;0.098;2023-07-24T10:48:46;16.90;73.10
63094;DHT22;49183;51.380;0.098;2023-07-24T10:51:14;17.10;74.10
63094;DHT22;49183;51.380;0.098;2023-07-24T10:53:46;17.30;73.70
63094;DHT22;49183;51.380;0.098;2023-07-24T10:56:14;17.60;71.10
63094;DHT22;49183;51.380;0.098;2023-07-24T10:58:42;17.60;70.40
63094;DHT22;49183;51.380;0.098;2023-07-24T11:01:09;17.60;70.80
63094;DHT22;49183;51.380;0.098;2023-07-24T11:03:42;17.50;69.10
63094;DHT22;49183;51.380;0.098;2023-07-24T11:06:14;17.30;70.30
63094;DHT22;49183;51.380;0.098;2023-07-24T11:08:42;17.30;70.60
63094;DHT22;49183;51.380;0.098;2023-07-24T11:11:10;17.60;69.90
63094;DHT22;49183;51.380;0.098;2023-07-24T11:13:39;17.80;70.30
63094;DHT22;49183;51.380;0.098;2023-07-24T11:16:07;17.90;70.60
63094;DHT22;49183;51.380;0.098;2023-07-24T11:18:45;18.10;68.10
63094;DHT22;49183;51.380;0.098;2023-07-24T11:21:24;18.00;66.20
63094;DHT22;49183;51.380;0.098;2023-07-24T11:23:53;18.10;67.50
63094;DHT22;49183;51.380;0.098;2023-07-24T11:26:23;18.10;67.80
63094;DHT22;49183;51.380;0.098;2023-07-24T11:28:52;18.10;67.50
63094;DHT22;49183;51.380;0.098;2023-07-24T11:31:19;17.90;67.90
63094;DHT22;49183;51.380;0.098;2023-07-24T11:33:51;17.80;68.80
63094;DHT22;49183;51.380;0.098;2023-07-24T11:36:19;17.70;69.20
63094;DHT22;49183;51.380;0.098;2023-07-24T11:38:47;17.50;69.30
63094;DHT22;49183;51.380;0.098;2023-07-24T11:41:16;17.40;69.70
63094;DHT22;49183;51.380;0.098;2023-07-24T11:43:45;17.40;70.30
63094;DHT22;49183;51.380;0.098;2023-07-24T11:46:22;17.40;70.60
63094;DHT22;49183;51.380;0.098;2023-07-24T11:48:50;17.50;71.00
63094;DHT22;49183;51.380;0.098;2023-07-24T11:51:20;17.50;70.80
63094;DHT22;49183;51.380;0.098;2023-07-24T11:53:48;17.70;70.60
63094;DHT22;49183;51.380;0.098;2023-07-24T11:56:16;17.70;70.10
63094;DHT22;49183;51.380;0.098;2023-07-24T11:58:44;17.80;69.90
63094;DHT22;49183;51.380;0.098;2023-07-24T12:01:12;17.90;69.30
63094;DHT22;49183;51.380;0.098;2023-07-24T12:03:40;17.90;69.30
63094;DHT22;49183;51.380;0.098;2023-07-24T12:06:15;17.90;69.10
63094;DHT22;49183;51.380;0.098;2023-07-24T12:08:44;17.90;69.40
63094;DHT22;49183;51.380;0.098;2023-07-24T12:11:18;18.00;69.70
63094;DHT22;49183;51.380;0.098;2023-07-24T12:13:48;18.10;69.50
63094;DHT22;49183;51.380;0.098;2023-07-24T12:16:17;18.00;69.00
63094;DHT22;49183;51.380;0.098;2023-07-24T12:18:45;18.00;69.30
63094;DHT22;49183;51.380;0.098;2023-07-24T12:21:13;17.90;69.40
63094;DHT22;49183;51.380;0.098;2023-07-24T12:23:40;17.80;68.70
63094;DHT22;49183;51.380;0.098;2023-07-24T12:26:08;17.80;68.80
63094;DHT22;49183;51.380;0.098;2023-07-24T12:28:35;17.60;68.90
63094;DHT22;49183;51.380;0.098;2023-07-24T12:31:03;17.60;69.20
63094;DHT22;49183;51.380;0.098;2023-07-24T12:33:31;17.60;69.30
63094;DHT22;49183;51.380;0.098;2023-07-24T12:35:59;17.60;69.40
63094;DHT22;49183;51.380;0.098;2023-07-24T12:38:26;17.60;69.10
63094;DHT22;49183;51.380;0.098;2023-07-24T12:40:54;17.70;69.40
63094;DHT22;49183;51.380;0.098;2023-07-24T12:43:21;17.80;69.30
63094;DHT22;49183;51.380;0.098;2023-07-24T12:45:49;17.90;69.30
63094;DHT22;49183;51.380;0.098;2023-07-24T12:48:16;18.10;69.50
63094;DHT22;49183;51.380;0.098;2023-07-24T12:50:44;18.20;68.80
63094;DHT22;49183;51.380;0.098;2023-07-24T12:53:12;18.30;69.00
63094;DHT22;49183;51.380;0.098;2023-07-24T12:55:50;18.40;68.80
63094;DHT22;49183;51.380;0.098;2023-07-24T12:58:18;18.30;67.20
63094;DHT22;49183;51.380;0.098;2023-07-24T13:00:45;18.30;66.50
63094;DHT22;49183;51.380;0.098;2023-07-24T13:03:13;18.10;65.80
63094;DHT22;49183;51.380;0.098;2023-07-24T13:05:40;18.00;66.20
63094;DHT22;49183;51.380;0.098;2023-07-24T13:08:08;17.80;64.90
63094;DHT22;49183;51.380;0.098;2023-07-24T13:10:35;17.70;64.40
63094;DHT22;49183;51.380;0.098;2023-07-24T13:13:03;17.60;65.60
63094;DHT22;49183;51.380;0.098;2023-07-24T13:15:31;17.60;64.90
63094;DHT22;49183;51.380;0.098;2023-07-24T13:17:59;17.60;64.90
63094;DHT22;49183;51.380;0.098;2023-07-24T13:20:44;17.60;63.30
63094;DHT22;49183;51.380;0.098;2023-07-24T13:23:11;17.70;63.20
63094;DHT22;49183;51.380;0.098;2023-07-24T13:25:39;17.80;64.00
63094;DHT22;49183;51.380;0.098;2023-07-24T13:28:06;17.90;63.10
63094;DHT22;49183;51.380;0.098;2023-07-24T13:30:34;18.10;63.70
63094;DHT22;49183;51.380;0.098;2023-07-24T13:33:01;18.30;62.20
63094;DHT22;49183;51.380;0.098;2023-07-24T13:35:29;18.30;62.00
63094;DHT22;49183;51.380;0.098;2023-07-24T13:37:56;18.30;63.10
63094;DHT22;49183;51.380;0.098;2023-07-24T13:40:24;18.50;63.70
63094;DHT22;49183;51.380;0.098;2023-07-24T13:42:51;18.70;63.80
63094;DHT22;49183;51.380;0.098;2023-07-24T13:45:19;18.90;63.60
63094;DHT22;49183;51.380;0.098;2023-07-24T13:47:47;18.90;59.80
63094;DHT22;49183;51.380;0.098;2023-07-24T13:50:14;18.80;60.20
63094;DHT22;49183;51.380;0.098;2023-07-24T13:52:42;18.80;62.00
63094;DHT22;49183;51.380;0.098;2023-07-24T13:55:09;18.80;62.20
63094;DHT22;49183;51.380;0.098;2023-07-24T13:57:37;18.90;62.50
63094;DHT22;49183;51.380;0.098;2023-07-24T14:00:05;19.00;62.30
63094;DHT22;49183;51.380;0.098;2023-07-24T14:02:38;19.10;61.70
63094;DHT22;49183;51.380;0.098;2023-07-24T14:05:05;19.30;61.30
63094;DHT22;49183;51.380;0.098;2023-07-24T14:07:33;19.50;59.20
63094;DHT22;49183;51.380;0.098;2023-07-24T14:10:01;19.50;57.70
63094;DHT22;49183;51.380;0.098;2023-07-24T14:12:28;19.40;57.10
63094;DHT22;49183;51.380;0.098;2023-07-24T14:14:55;19.40;55.40
63094;DHT22;49183;51.380;0.098;2023-07-24T14:17:23;19.30;56.70
63094;DHT22;49183;51.380;0.098;2023-07-24T14:19:50;19.30;56.20
63094;DHT22;49183;51.380;0.098;2023-07-24T14:22:18;19.40;57.30
63094;DHT22;49183;51.380;0.098;2023-07-24T14:24:46;19.50;57.30
63094;DHT22;49183;51.380;0.098;2023-07-24T14:27:15;19.60;56.80
63094;DHT22;49183;51.380;0.098;2023-07-24T14:29:42;19.70;57.20
63094;DHT22;49183;51.380;0.098;2023-07-24T14:32:10;19.70;57.50
63094;DHT22;49183;51.380;0.098;2023-07-24T14:34:37;19.80;58.00
63094;DHT22;49183;51.380;0.098;2023-07-24T14:37:08;19.90;58.10
63094;DHT22;49183;51.380;0.098;2023-07-24T14:39:36;20.00;57.60
63094;DHT22;49183;51.380;0.098;2023-07-24T14:42:04;20.00;56.90
63094;DHT22;49183;51.380;0.098;2023-07-24T14:44:31;19.90;55.20
63094;DHT22;49183;51.380;0.098;2023-07-24T14:46:59;20.00;55.50
63094;DHT22;49183;51.380;0.098;2023-07-24T14:49:26;20.30;55.90
63094;DHT22;49183;51.380;0.098;2023-07-24T14:51:54;20.30;55.80
63094;DHT22;49183;51.380;0.098;2023-07-24T14:54:21;20.30;55.40
63094;DHT22;49183;51.380;0.098;2023-07-24T14:56:49;20.30;56.10
63094;DHT22;49183;51.380;0.098;2023-07-24T14:59:28;20.30;56.60
63094;DHT22;49183;51.380;0.098;2023-07-24T15:01:56;20.30;56.90
63094;DHT22;49183;51.380;0.098;2023-07-24T15:04:23;20.10;56.30
63094;DHT22;49183;51.380;0.098;2023-07-24T15:06:51;19.90;56.60
63094;DHT22;49183;51.380;0.098;2023-07-24T15:09:18;19.80;57.30
63094;DHT22;49183;51.380;0.098;2023-07-24T15:11:46;19.80;57.60
63094;DHT22;49183;51.380;0.098;2023-07-24T15:14:13;19.90;57.30
63094;DHT22;49183;51.380;0.098;2023-07-24T15:16:41;20.10;57.30
63094;DHT22;49183;51.380;0.098;2023-07-24T15:19:09;20.30;57.40
63094;DHT22;49183;51.380;0.098;2023-07-24T15:21:36;20.60;57.20
63094;DHT22;49183;51.380;0.098;2023-07-24T15:24:04;20.80;56.30
63094;DHT22;49183;51.380;0.098;2023-07-24T15:26:31;21.00;55.40
63094;DHT22;49183;51.380;0.098;2023-07-24T15:29:01;21.10;54.50
63094;DHT22;49183;51.380;0.098;2023-07-24T15:31:29;21.10;55.00
63094;DHT22;49183;51.380;0.098;2023-07-24T15:34:02;21.10;55.40
63094;DHT22;49183;51.380;0.098;2023-07-24T15:36:30;21.00;55.80
63094;DHT22;49183;51.380;0.098;2023-07-24T15:38:58;20.80;55.00
63094;DHT22;49183;51.380;0.098;2023-07-24T15:41:25;20.50;55.40
63094;DHT22;49183;51.380;0.098;2023-07-24T15:43:53;20.30;56.70
63094;DHT22;49183;51.380;0.098;2023-07-24T15:46:21;19.90;57.70
63094;DHT22;49183;51.380;0.098;2023-07-24T15:48:48;19.70;58.30
63094;DHT22;49183;51.380;0.098;2023-07-24T15:51:16;19.40;58.70
63094;DHT22;49183;51.380;0.098;2023-07-24T15:53:43;19.20;59.50
63094;DHT22;49183;51.380;0.098;2023-07-24T15:56:13;19.00;60.00
63094;DHT22;49183;51.380;0.098;2023-07-24T15:58:42;18.80;60.80
63094;DHT22;49183;51.380;0.098;2023-07-24T16:01:10;18.60;61.30
63094;DHT22;49183;51.380;0.098;2023-07-24T16:03:38;18.40;61.40
63094;DHT22;49183;51.380;0.098;2023-07-24T16:06:05;18.30;61.90
63094;DHT22;49183;51.380;0.098;2023-07-24T16:08:33;18.10;62.40
63094;DHT22;49183;51.380;0.098;2023-07-24T16:11:01;18.00;63.00
63094;DHT22;49183;51.380;0.098;2023-07-24T16:13:29;18.00;63.00
63094;DHT22;49183;51.380;0.098;2023-07-24T16:15:56;18.00;63.00
63094;DHT22;49183;51.380;0.098;2023-07-24T16:18:24;18.10;63.00
63094;DHT22;49183;51.380;0.098;2023-07-24T16:20:51;18.20;62.90
63094;DHT22;49183;51.380;0.098;2023-07-24T16:23:21;18.30;63.00
63094;DHT22;49183;51.380;0.098;2023-07-24T16:25:49;18.40;63.00
63094;DHT22;49183;51.380;0.098;2023-07-24T16:28:16;18.40;62.40